sensor_id;sensor_type;location;lat;lon;timestamp;pressure;altitude;pressure_sealevel;temperature;humidity
3206;BME280;1615;53.602;11.418;2023-08-07T00:02:02;99865.28;;;18.02;100.00
3206;BME280;1615;53.602;11.418;2023-08-07T00:04:28;99636.38;;;16.71;100.00
3206;BME280;1615;53.602;11.418;2023-08-07T00:06:53;99899.94;;;18.08;100.00
3206;BME280;1615;53.602;11.418;2023-08-07T00:09:19;99801.28;;;17.72;100.00
3206;BME280;1615;53.602;11.418;2023-08-07T00:11:44;99856.56;;;18.00;100.00
3206;BME280;1615;53.602;11.418;2023-08-07T00:14:09;99893.63;;;18.11;100.00
3206;BME280;1615;53.602;11.418;2023-08-07T00:16:34;99824.88;;;17.82;100.00
3206;BME280;1615;53.602;11.418;2023-08-07T00:19:00;99764.69;;;17.63;100.00
3206;BME280;1615;53.602;11.418;2023-08-07T00:21:25;99873.94;;;18.16;100.00
3206;BME280;1615;53.602;11.418;2023-08-07T00:23:50;99869.03;;;18.09;100.00
3206;BME280;1615;53.602;11.418;2023-08-07T00:26:16;99862.63;;;18.05;100.00
3206;BME280;1615;53.602;11.418;2023-08-07T00:28:41;99865.00;;;18.07;100.00
3206;BME280;1615;53.602;11.418;2023-08-07T00:31:07;99844.63;;;17.99;100.00
3206;BME280;1615;53.602;11.418;2023-08-07T00:33:32;99878.16;;;18.10;100.00
3206;BME280;1615;53.602;11.418;2023-08-07T00:35:57;99867.13;;;18.13;100.00
3206;BME280;1615;53.602;11.418;2023-08-07T00:38:23;99873.50;;;18.14;100.00
3206;BME280;1615;53.602;11.418;2023-08-07T00:40:49;99859.47;;;18.26;100.00
3206;BME280;1615;53.602;11.418;2023-08-07T00:43:14;99737.19;;;17.55;100.00
3206;BME280;1615;53.602;11.418;2023-08-07T00:45:46;99753.78;;;17.74;100.00
3206;BME280;1615;53.602;11.418;2023-08-07T00:48:12;99786.50;;;17.84;100.00
3206;BME280;1615;53.602;11.418;2023-08-07T00:50:40;99730.59;;;17.63;100.00
3206;BME280;1615;53.602;11.418;2023-08-07T00:53:07;99753.63;;;17.86;100.00
3206;BME280;1615;53.602;11.418;2023-08-07T00:55:33;99784.06;;;18.01;100.00
3206;BME280;1615;53.602;11.418;2023-08-07T00:57:59;99807.63;;;18.11;100.00
3206;BME280;1615;53.602;11.418;2023-08-07T01:00:28;99829.53;;;18.16;100.00
3206;BME280;1615;53.602;11.418;2023-08-07T01:02:56;99851.47;;;18.40;100.00
3206;BME280;1615;53.602;11.418;2023-08-07T01:05:24;99812.16;;;18.00;100.00
3206;BME280;1615;53.602;11.418;2023-08-07T01:07:49;99817.50;;;17.89;100.00
3206;BME280;1615;53.602;11.418;2023-08-07T01:10:22;99742.72;;;17.55;100.00
3206;BME280;1615;53.602;11.418;2023-08-07T01:12:54;99813.94;;;18.08;100.00
3206;BME280;1615;53.602;11.418;2023-08-07T01:15:30;99834.72;;;18.17;100.00
3206;BME280;1615;53.602;11.418;2023-08-07T01:17:56;99828.38;;;18.17;100.00
3206;BME280;1615;53.602;11.418;2023-08-07T01:20:22;99742.34;;;17.56;100.00
3206;BME280;1615;53.602;11.418;2023-08-07T01:22:48;99832.25;;;18.12;100.00
3206;BME280;1615;53.602;11.418;2023-08-07T01:25:13;99791.16;;;17.99;100.00
3206;BME280;1615;53.602;11.418;2023-08-07T01:27:46;99820.44;;;17.96;100.00
3206;BME280;1615;53.602;11.418;2023-08-07T01:30:26;99830.19;;;18.09;100.00
3206;BME280;1615;53.602;11.418;2023-08-07T01:33:04;99714.41;;;17.46;100.00
3206;BME280;1615;53.602;11.418;2023-08-07T01:35:40;99815.66;;;17.97;100.00
3206;BME280;1615;53.602;11.418;2023-08-07T01:38:07;99813.13;;;18.07;100.00
3206;BME280;1615;53.602;11.418;2023-08-07T01:40:33;99703.75;;;17.29;100.00
3206;BME280;1615;53.602;11.418;2023-08-07T01:43:00;99747.53;;;17.77;100.00
3206;BME280;1615;53.602;11.418;2023-08-07T01:45:26;99804.13;;;17.95;100.00
3206;BME280;1615;53.602;11.418;2023-08-07T01:47:52;99788.09;;;17.85;100.00
3206;BME280;1615;53.602;11.418;2023-08-07T01:50:22;99805.03;;;17.99;100.00
3206;BME280;1615;53.602;11.418;2023-08-07T01:52:48;99770.56;;;17.81;100.00
3206;BME280;1615;53.602;11.418;2023-08-07T01:55:18;99748.22;;;17.36;100.00
3206;BME280;1615;53.602;11.418;2023-08-07T01:57:43;99804.72;;;17.85;100.00
3206;BME280;1615;53.602;11.418;2023-08-07T02:00:09;99806.72;;;17.84;100.00
3206;BME280;1615;53.602;11.418;2023-08-07T02:02:38;99805.59;;;17.89;100.00
3206;BME280;1615;53.602;11.418;2023-08-07T02:05:04;99807.22;;;17.90;100.00
3206;BME280;1615;53.602;11.418;2023-08-07T02:07:30;99815.97;;;17.92;100.00
3206;BME280;1615;53.602;11.418;2023-08-07T02:09:55;99751.75;;;17.52;100.00
3206;BME280;1615;53.602;11.418;2023-08-07T02:12:20;99745.41;;;17.17;100.00
3206;BME280;1615;53.602;11.418;2023-08-07T02:14:45;99781.25;;;17.60;100.00
3206;BME280;1615;53.602;11.418;2023-08-07T02:17:11;99816.56;;;17.82;100.00
3206;BME280;1615;53.602;11.418;2023-08-07T02:19:36;99801.38;;;17.76;100.00
3206;BME280;1615;53.602;11.418;2023-08-07T02:22:02;99796.41;;;17.66;100.00
3206;BME280;1615;53.602;11.418;2023-08-07T02:24:27;99773.22;;;17.55;100.00
3206;BME280;1615;53.602;11.418;2023-08-07T02:26:53;99768.16;;;17.60;100.00
3206;BME280;1615;53.602;11.418;2023-08-07T02:29:18;99779.59;;;17.59;100.00
3206;BME280;1615;53.602;11.418;2023-08-07T02:31:44;99813.03;;;17.66;100.00
3206;BME280;1615;53.602;11.418;2023-08-07T02:34:09;99676.84;;;16.95;100.00
3206;BME280;1615;53.602;11.418;2023-08-07T02:36:34;99723.75;;;17.22;100.00
3206;BME280;1615;53.602;11.418;2023-08-07T02:38:59;99810.00;;;17.71;100.00
3206;BME280;1615;53.602;11.418;2023-08-07T02:41:25;99733.72;;;17.08;100.00
3206;BME280;1615;53.602;11.418;2023-08-07T02:43:50;99663.69;;;16.73;100.00
3206;BME280;1615;53.602;11.418;2023-08-07T02:46:15;99802.66;;;17.63;100.00
3206;BME280;1615;53.602;11.418;2023-08-07T02:48:43;99797.47;;;17.61;100.00
3206;BME280;1615;53.602;11.418;2023-08-07T02:51:08;99772.59;;;17.46;100.00
3206;BME280;1615;53.602;11.418;2023-08-07T02:53:34;99795.94;;;17.64;100.00
3206;BME280;1615;53.602;11.418;2023-08-07T02:55:59;99632.41;;;16.53;100.00
3206;BME280;1615;53.602;11.418;2023-08-07T02:58:24;99792.16;;;17.53;100.00
3206;BME280;1615;53.602;11.418;2023-08-07T03:00:49;99729.50;;;17.14;100.00
3206;BME280;1615;53.602;11.418;2023-08-07T03:03:15;99756.63;;;17.39;100.00
3206;BME280;1615;53.602;11.418;2023-08-07T03:05:50;99783.25;;;17.44;100.00
3206;BME280;1615;53.602;11.418;2023-08-07T03:08:16;99784.59;;;17.50;100.00
3206;BME280;1615;53.602;11.418;2023-08-07T03:10:41;99757.16;;;17.45;100.00
3206;BME280;1615;53.602;11.418;2023-08-07T03:13:07;99725.72;;;17.03;100.00
3206;BME280;1615;53.602;11.418;2023-08-07T03:15:32;99571.69;;;16.10;100.00
3206;BME280;1615;53.602;11.418;2023-08-07T03:17:57;99774.38;;;17.04;100.00
3206;BME280;1615;53.602;11.418;2023-08-07T03:20:22;99739.69;;;17.10;100.00
3206;BME280;1615;53.602;11.418;2023-08-07T03:22:48;99765.41;;;17.26;100.00
3206;BME280;1615;53.602;11.418;2023-08-07T03:25:13;99763.09;;;17.28;100.00
3206;BME280;1615;53.602;11.418;2023-08-07T03:27:38;99789.94;;;17.43;100.00
3206;BME280;1615;53.602;11.418;2023-08-07T03:30:04;99713.59;;;16.92;100.00
3206;BME280;1615;53.602;11.418;2023-08-07T03:32:29;99783.88;;;17.37;100.00
3206;BME280;1615;53.602;11.418;2023-08-07T03:34:55;99714.91;;;16.98;100.00
3206;BME280;1615;53.602;11.418;2023-08-07T03:37:20;99776.09;;;17.43;100.00
3206;BME280;1615;53.602;11.418;2023-08-07T03:39:45;99740.38;;;17.22;100.00
3206;BME280;1615;53.602;11.418;2023-08-07T03:42:13;99692.88;;;16.86;100.00
3206;BME280;1615;53.602;11.418;2023-08-07T03:44:39;99671.72;;;16.78;100.00
3206;BME280;1615;53.602;11.418;2023-08-07T03:47:05;99717.47;;;17.06;100.00
3206;BME280;1615;53.602;11.418;2023-08-07T03:49:30;99786.69;;;17.56;100.00
3206;BME280;1615;53.602;11.418;2023-08-07T03:51:55;99667.19;;;16.70;100.00
3206;BME280;1615;53.602;11.418;2023-08-07T03:54:21;99622.25;;;16.42;100.00
3206;BME280;1615;53.602;11.418;2023-08-07T03:56:46;99778.66;;;17.51;100.00
3206;BME280;1615;53.602;11.418;2023-08-07T03:59:13;99686.72;;;16.77;100.00
3206;BME280;1615;53.602;11.418;2023-08-07T04:01:38;99669.44;;;16.64;100.00
3206;BME280;1615;53.602;11.418;2023-08-07T04:04:04;99777.09;;;17.35;100.00
3206;BME280;1615;53.602;11.418;2023-08-07T04:06:29;99769.06;;;17.30;100.00
3206;BME280;1615;53.602;11.418;2023-08-07T04:08:54;99777.50;;;17.18;100.00
3206;BME280;1615;53.602;11.418;2023-08-07T04:11:19;99800.50;;;17.37;100.00
3206;BME280;1615;53.602;11.418;2023-08-07T04:13:45;99791.72;;;17.35;100.00
3206;BME280;1615;53.602;11.418;2023-08-07T04:16:10;99782.38;;;17.40;100.00
3206;BME280;1615;53.602;11.418;2023-08-07T04:18:35;99812.38;;;17.53;100.00
3206;BME280;1615;53.602;11.418;2023-08-07T04:21:00;99781.31;;;17.29;100.00
3206;BME280;1615;53.602;11.418;2023-08-07T04:23:28;99813.91;;;17.51;100.00
3206;BME280;1615;53.602;11.418;2023-08-07T04:25:53;99805.94;;;17.49;100.00
3206;BME280;1615;53.602;11.418;2023-08-07T04:28:19;99758.47;;;17.16;100.00
3206;BME280;1615;53.602;11.418;2023-08-07T04:30:45;99783.63;;;17.27;100.00
3206;BME280;1615;53.602;11.418;2023-08-07T04:33:14;99771.09;;;17.33;100.00
3206;BME280;1615;53.602;11.418;2023-08-07T04:35:39;99785.81;;;17.18;100.00
3206;BME280;1615;53.602;11.418;2023-08-07T04:38:05;99730.63;;;16.94;100.00
3206;BME280;1615;53.602;11.418;2023-08-07T04:40:30;99558.78;;;15.83;100.00
3206;BME280;1615;53.602;11.418;2023-08-07T04:42:56;99681.81;;;16.70;100.00
3206;BME280;1615;53.602;11.418;2023-08-07T04:45:21;99757.28;;;17.17;100.00
3206;BME280;1615;53.602;11.418;2023-08-07T04:47:47;99732.97;;;16.92;100.00
3206;BME280;1615;53.602;11.418;2023-08-07T04:50:12;99796.59;;;17.38;100.00
3206;BME280;1615;53.602;11.418;2023-08-07T04:52:38;99704.53;;;16.95;100.00
3206;BME280;1615;53.602;11.418;2023-08-07T04:55:04;99784.94;;;17.33;100.00
3206;BME280;1615;53.602;11.418;2023-08-07T04:57:29;99562.69;;;15.98;100.00
3206;BME280;1615;53.602;11.418;2023-08-07T04:59:55;99781.13;;;17.22;100.00
3206;BME280;1615;53.602;11.418;2023-08-07T05:02:20;99802.72;;;17.32;100.00
3206;BME280;1615;53.602;11.418;2023-08-07T05:04:45;99825.88;;;17.55;100.00
3206;BME280;1615;53.602;11.418;2023-08-07T05:07:11;99815.28;;;17.41;100.00
3206;BME280;1615;53.602;11.418;2023-08-07T05:09:37;99806.16;;;17.41;100.00
3206;BME280;1615;53.602;11.418;2023-08-07T05:12:03;99799.88;;;17.44;100.00
3206;BME280;1615;53.602;11.418;2023-08-07T05:14:29;99839.88;;;17.62;100.00
3206;BME280;1615;53.602;11.418;2023-08-07T05:16:54;99825.59;;;17.60;100.00
3206;BME280;1615;53.602;11.418;2023-08-07T05:19:20;99834.66;;;17.76;100.00
3206;BME280;1615;53.602;11.418;2023-08-07T05:21:45;99832.66;;;17.57;100.00
3206;BME280;1615;53.602;11.418;2023-08-07T05:24:15;99688.72;;;16.61;100.00
3206;BME280;1615;53.602;11.418;2023-08-07T05:26:40;99830.53;;;17.70;100.00
3206;BME280;1615;53.602;11.418;2023-08-07T05:29:06;99831.34;;;17.70;100.00
3206;BME280;1615;53.602;11.418;2023-08-07T05:31:32;99807.03;;;17.64;100.00
3206;BME280;1615;53.602;11.418;2023-08-07T05:33:57;99803.31;;;17.56;100.00
3206;BME280;1615;53.602;11.418;2023-08-07T05:36:22;99829.53;;;17.78;100.00
3206;BME280;1615;53.602;11.418;2023-08-07T05:38:48;99814.34;;;17.72;100.00
3206;BME280;1615;53.602;11.418;2023-08-07T05:41:13;99811.41;;;17.65;100.00
3206;BME280;1615;53.602;11.418;2023-08-07T05:43:38;99691.66;;;17.02;100.00
3206;BME280;1615;53.602;11.418;2023-08-07T05:46:03;99785.91;;;17.56;100.00
3206;BME280;1615;53.602;11.418;2023-08-07T05:48:29;99824.59;;;17.87;100.00
3206;BME280;1615;53.602;11.418;2023-08-07T05:50:55;99751.25;;;17.31;100.00
3206;BME280;1615;53.602;11.418;2023-08-07T05:53:20;99851.66;;;17.93;100.00
3206;BME280;1615;53.602;11.418;2023-08-07T05:55:45;99590.81;;;16.34;100.00
3206;BME280;1615;53.602;11.418;2023-08-07T05:58:10;99790.28;;;17.76;100.00
3206;BME280;1615;53.602;11.418;2023-08-07T06:00:36;99820.91;;;18.02;100.00
3206;BME280;1615;53.602;11.418;2023-08-07T06:03:01;99767.94;;;17.69;100.00
3206;BME280;1615;53.602;11.418;2023-08-07T06:05:27;99695.31;;;17.41;100.00
3206;BME280;1615;53.602;11.418;2023-08-07T06:07:52;99865.59;;;18.16;100.00
3206;BME280;1615;53.602;11.418;2023-08-07T06:10:17;99819.56;;;18.11;100.00
3206;BME280;1615;53.602;11.418;2023-08-07T06:12:43;99791.44;;;17.94;100.00
3206;BME280;1615;53.602;11.418;2023-08-07T06:15:08;99800.56;;;18.13;100.00
3206;BME280;1615;53.602;11.418;2023-08-07T06:17:34;99811.28;;;18.15;100.00
3206;BME280;1615;53.602;11.418;2023-08-07T06:20:00;99770.03;;;17.94;100.00
3206;BME280;1615;53.602;11.418;2023-08-07T06:22:25;99808.50;;;18.15;100.00
3206;BME280;1615;53.602;11.418;2023-08-07T06:24:51;99768.50;;;17.97;100.00
3206;BME280;1615;53.602;11.418;2023-08-07T06:27:16;99842.22;;;18.55;100.00
3206;BME280;1615;53.602;11.418;2023-08-07T06:29:41;99836.81;;;18.62;100.00
3206;BME280;1615;53.602;11.418;2023-08-07T06:32:07;99793.19;;;18.40;100.00
3206;BME280;1615;53.602;11.418;2023-08-07T06:34:32;99824.06;;;18.61;100.00
3206;BME280;1615;53.602;11.418;2023-08-07T06:36:58;99735.03;;;18.28;100.00
3206;BME280;1615;53.602;11.418;2023-08-07T06:39:23;99689.56;;;17.91;100.00
3206;BME280;1615;53.602;11.418;2023-08-07T06:41:48;99688.53;;;17.99;100.00
3206;BME280;1615;53.602;11.418;2023-08-07T06:44:13;99812.81;;;18.73;100.00
3206;BME280;1615;53.602;11.418;2023-08-07T06:46:39;99828.22;;;18.93;100.00
3206;BME280;1615;53.602;11.418;2023-08-07T06:49:06;99800.47;;;18.70;100.00
3206;BME280;1615;53.602;11.418;2023-08-07T06:51:31;99803.50;;;18.62;100.00
3206;BME280;1615;53.602;11.418;2023-08-07T06:53:57;99736.50;;;18.22;100.00
3206;BME280;1615;53.602;11.418;2023-08-07T06:56:22;99829.63;;;18.83;100.00
3206;BME280;1615;53.602;11.418;2023-08-07T06:58:47;99826.19;;;18.67;100.00
3206;BME280;1615;53.602;11.418;2023-08-07T07:01:13;99833.03;;;18.96;100.00
3206;BME280;1615;53.602;11.418;2023-08-07T07:03:38;99826.22;;;19.16;100.00
3206;BME280;1615;53.602;11.418;2023-08-07T07:06:03;99592.69;;;17.56;100.00
3206;BME280;1615;53.602;11.418;2023-08-07T07:08:29;99818.22;;;19.11;100.00
3206;BME280;1615;53.602;11.418;2023-08-07T07:10:54;99833.09;;;19.22;100.00
3206;BME280;1615;53.602;11.418;2023-08-07T07:13:20;99833.44;;;19.20;100.00
3206;BME280;1615;53.602;11.418;2023-08-07T07:15:45;99751.81;;;18.80;100.00
3206;BME280;1615;53.602;11.418;2023-08-07T07:18:10;99758.91;;;18.77;100.00
3206;BME280;1615;53.602;11.418;2023-08-07T07:20:36;99839.72;;;19.40;100.00
3206;BME280;1615;53.602;11.418;2023-08-07T07:23:01;99838.53;;;19.41;100.00
3206;BME280;1615;53.602;11.418;2023-08-07T07:25:26;99824.13;;;19.32;100.00
3206;BME280;1615;53.602;11.418;2023-08-07T07:27:51;99829.03;;;19.42;100.00
3206;BME280;1615;53.602;11.418;2023-08-07T07:30:17;99793.88;;;19.27;99.60
3206;BME280;1615;53.602;11.418;2023-08-07T07:32:42;99824.91;;;19.58;98.08
3206;BME280;1615;53.602;11.418;2023-08-07T07:35:08;99836.50;;;19.64;96.79
3206;BME280;1615;53.602;11.418;2023-08-07T07:37:33;99842.41;;;19.88;94.95
3206;BME280;1615;53.602;11.418;2023-08-07T07:39:58;99841.59;;;19.88;94.12
3206;BME280;1615;53.602;11.418;2023-08-07T07:42:24;99833.03;;;20.00;93.64
3206;BME280;1615;53.602;11.418;2023-08-07T07:44:49;99817.75;;;19.87;93.57
3206;BME280;1615;53.602;11.418;2023-08-07T07:47:14;99753.03;;;19.60;90.21
3206;BME280;1615;53.602;11.418;2023-08-07T07:49:45;99797.81;;;19.81;86.51
3206;BME280;1615;53.602;11.418;2023-08-07T07:52:12;99618.16;;;18.55;87.23
3206;BME280;1615;53.602;11.418;2023-08-07T07:54:37;99823.38;;;19.94;89.40
3206;BME280;1615;53.602;11.418;2023-08-07T07:57:03;99799.13;;;19.91;88.27
3206;BME280;1615;53.602;11.418;2023-08-07T07:59:28;99785.88;;;19.81;86.52
3206;BME280;1615;53.602;11.418;2023-08-07T08:01:53;99791.03;;;19.79;85.42
3206;BME280;1615;53.602;11.418;2023-08-07T08:04:19;99823.31;;;20.16;86.00
3206;BME280;1615;53.602;11.418;2023-08-07T08:06:44;99823.34;;;19.90;82.52
3206;BME280;1615;53.602;11.418;2023-08-07T08:09:12;99861.81;;;20.11;82.46
3206;BME280;1615;53.602;11.418;2023-08-07T08:11:37;99858.19;;;20.07;81.01
3206;BME280;1615;53.602;11.418;2023-08-07T08:14:03;99858.59;;;20.09;80.97
3206;BME280;1615;53.602;11.418;2023-08-07T08:16:28;99861.97;;;20.25;84.45
3206;BME280;1615;53.602;11.418;2023-08-07T08:18:53;99861.97;;;20.25;81.71
3206;BME280;1615;53.602;11.418;2023-08-07T08:21:19;99856.31;;;20.14;80.04
3206;BME280;1615;53.602;11.418;2023-08-07T08:23:44;99871.59;;;20.31;82.60
3206;BME280;1615;53.602;11.418;2023-08-07T08:26:09;99807.47;;;19.91;83.90
3206;BME280;1615;53.602;11.418;2023-08-07T08:28:34;99769.66;;;19.57;76.85
3206;BME280;1615;53.602;11.418;2023-08-07T08:31:00;99867.66;;;20.32;78.58
3206;BME280;1615;53.602;11.418;2023-08-07T08:33:25;99792.25;;;20.11;78.77
3206;BME280;1615;53.602;11.418;2023-08-07T08:35:52;99824.66;;;20.29;75.52
3206;BME280;1615;53.602;11.418;2023-08-07T08:38:17;99859.41;;;20.79;76.44
3206;BME280;1615;53.602;11.418;2023-08-07T08:40:43;99884.31;;;20.98;79.40
3206;BME280;1615;53.602;11.418;2023-08-07T08:43:12;99869.72;;;20.75;75.01
3206;BME280;1615;53.602;11.418;2023-08-07T08:45:39;99882.69;;;20.93;76.77
3206;BME280;1615;53.602;11.418;2023-08-07T08:48:07;99859.06;;;20.87;77.37
3206;BME280;1615;53.602;11.418;2023-08-07T08:50:34;99842.47;;;20.58;74.82
3206;BME280;1615;53.602;11.418;2023-08-07T08:53:02;99884.91;;;20.81;72.50
3206;BME280;1615;53.602;11.418;2023-08-07T08:55:28;99876.00;;;21.05;73.70
3206;BME280;1615;53.602;11.418;2023-08-07T08:57:54;99829.91;;;20.74;69.93
3206;BME280;1615;53.602;11.418;2023-08-07T09:00:19;99875.16;;;21.01;69.55
3206;BME280;1615;53.602;11.418;2023-08-07T09:02:50;99876.53;;;21.21;69.71
3206;BME280;1615;53.602;11.418;2023-08-07T09:05:18;99884.59;;;21.33;72.85
3206;BME280;1615;53.602;11.418;2023-08-07T09:07:45;99888.28;;;21.44;70.23
3206;BME280;1615;53.602;11.418;2023-08-07T09:10:13;99815.75;;;20.90;68.39
3206;BME280;1615;53.602;11.418;2023-08-07T09:12:45;99825.59;;;20.84;68.01
3206;BME280;1615;53.602;11.418;2023-08-07T09:15:15;99828.19;;;20.63;71.31
3206;BME280;1615;53.602;11.418;2023-08-07T09:17:42;99750.59;;;20.21;65.59
3206;BME280;1615;53.602;11.418;2023-08-07T09:20:08;99881.72;;;21.22;67.55
3206;BME280;1615;53.602;11.418;2023-08-07T09:22:38;99860.34;;;21.37;66.68
3206;BME280;1615;53.602;11.418;2023-08-07T09:25:03;99837.47;;;21.17;63.74
3206;BME280;1615;53.602;11.418;2023-08-07T09:27:30;99878.56;;;21.71;66.45
3206;BME280;1615;53.602;11.418;2023-08-07T09:29:55;99777.34;;;21.16;66.28
3206;BME280;1615;53.602;11.418;2023-08-07T09:32:22;99884.81;;;21.57;62.89
3206;BME280;1615;53.602;11.418;2023-08-07T09:34:49;99653.28;;;20.32;64.48
3206;BME280;1615;53.602;11.418;2023-08-07T09:37:15;99874.69;;;21.89;64.11
3206;BME280;1615;53.602;11.418;2023-08-07T09:39:41;99845.59;;;21.94;64.40
3206;BME280;1615;53.602;11.418;2023-08-07T09:42:16;99870.97;;;21.75;62.26
3206;BME280;1615;53.602;11.418;2023-08-07T09:44:42;99888.91;;;21.74;64.51
3206;BME280;1615;53.602;11.418;2023-08-07T09:47:16;99872.19;;;21.74;61.57
3206;BME280;1615;53.602;11.418;2023-08-07T09:49:42;99884.22;;;21.85;63.64
3206;BME280;1615;53.602;11.418;2023-08-07T09:52:09;99886.78;;;22.18;65.05
3206;BME280;1615;53.602;11.418;2023-08-07T09:54:35;99860.41;;;22.05;62.41
3206;BME280;1615;53.602;11.418;2023-08-07T09:57:01;99881.06;;;21.93;59.44
3206;BME280;1615;53.602;11.418;2023-08-07T09:59:31;99868.09;;;21.61;61.82
3206;BME280;1615;53.602;11.418;2023-08-07T10:01:57;99878.84;;;21.62;60.23
3206;BME280;1615;53.602;11.418;2023-08-07T10:04:25;99719.13;;;20.57;62.37
3206;BME280;1615;53.602;11.418;2023-08-07T10:06:51;99893.50;;;22.06;62.33
3206;BME280;1615;53.602;11.418;2023-08-07T10:09:16;99877.78;;;21.81;60.08
3206;BME280;1615;53.602;11.418;2023-08-07T10:11:42;99768.53;;;21.11;59.76
3206;BME280;1615;53.602;11.418;2023-08-07T10:14:14;99850.38;;;21.36;59.84
3206;BME280;1615;53.602;11.418;2023-08-07T10:16:40;99777.59;;;20.97;60.47
3206;BME280;1615;53.602;11.418;2023-08-07T10:19:06;99909.91;;;22.15;63.24
3206;BME280;1615;53.602;11.418;2023-08-07T10:21:41;99919.59;;;22.42;62.46
3206;BME280;1615;53.602;11.418;2023-08-07T10:24:08;99881.03;;;21.86;59.99
3206;BME280;1615;53.602;11.418;2023-08-07T10:26:35;99923.28;;;21.85;60.72
3206;BME280;1615;53.602;11.418;2023-08-07T10:29:04;99901.63;;;21.68;61.15
3206;BME280;1615;53.602;11.418;2023-08-07T10:31:32;99897.53;;;21.55;61.03
3206;BME280;1615;53.602;11.418;2023-08-07T10:33:58;99934.47;;;21.88;62.61
3206;BME280;1615;53.602;11.418;2023-08-07T10:36:32;99803.88;;;21.00;64.21
3206;BME280;1615;53.602;11.418;2023-08-07T10:39:09;99947.28;;;21.93;65.50
3206;BME280;1615;53.602;11.418;2023-08-07T10:41:39;99929.22;;;21.80;66.26
3206;BME280;1615;53.602;11.418;2023-08-07T10:44:05;99865.03;;;21.26;66.63
3206;BME280;1615;53.602;11.418;2023-08-07T10:46:50;99948.47;;;21.92;66.35
3206;BME280;1615;53.602;11.418;2023-08-07T10:49:32;99940.75;;;21.78;65.80
3206;BME280;1615;53.602;11.418;2023-08-07T10:51:58;99980.66;;;21.79;65.13
3206;BME280;1615;53.602;11.418;2023-08-07T10:54:24;99950.06;;;21.46;68.03
3206;BME280;1615;53.602;11.418;2023-08-07T10:56:54;99932.88;;;20.97;67.59
3206;BME280;1615;53.602;11.418;2023-08-07T10:59:20;99939.59;;;20.63;67.76
3206;BME280;1615;53.602;11.418;2023-08-07T11:01:51;99962.56;;;20.53;68.76
3206;BME280;1615;53.602;11.418;2023-08-07T11:04:17;99951.59;;;20.67;71.14
3206;BME280;1615;53.602;11.418;2023-08-07T11:06:43;99853.97;;;20.20;72.64
3206;BME280;1615;53.602;11.418;2023-08-07T11:09:11;99916.38;;;20.85;67.91
3206;BME280;1615;53.602;11.418;2023-08-07T11:11:41;99932.31;;;21.24;66.48
3206;BME280;1615;53.602;11.418;2023-08-07T11:14:11;99810.91;;;20.47;68.46
3206;BME280;1615;53.602;11.418;2023-08-07T11:16:38;99879.63;;;21.09;67.70
3206;BME280;1615;53.602;11.418;2023-08-07T11:19:04;99981.94;;;21.08;64.28
3206;BME280;1615;53.602;11.418;2023-08-07T11:21:33;99982.16;;;20.89;62.34
3206;BME280;1615;53.602;11.418;2023-08-07T11:23:59;99963.81;;;20.88;61.82
3206;BME280;1615;53.602;11.418;2023-08-07T11:26:24;99953.16;;;20.97;63.47
3206;BME280;1615;53.602;11.418;2023-08-07T11:28:51;99972.31;;;20.99;65.63
3206;BME280;1615;53.602;11.418;2023-08-07T11:31:20;99884.84;;;20.08;63.51
3206;BME280;1615;53.602;11.418;2023-08-07T11:33:46;99965.25;;;20.79;65.91
3206;BME280;1615;53.602;11.418;2023-08-07T11:36:13;99958.44;;;21.06;67.63
3206;BME280;1615;53.602;11.418;2023-08-07T11:38:43;99870.81;;;20.67;63.99
3206;BME280;1615;53.602;11.418;2023-08-07T11:41:13;99960.41;;;21.02;64.79
3206;BME280;1615;53.602;11.418;2023-08-07T11:43:39;99937.31;;;21.05;66.76
3206;BME280;1615;53.602;11.418;2023-08-07T11:46:06;99953.84;;;21.24;65.00
3206;BME280;1615;53.602;11.418;2023-08-07T11:48:34;99955.84;;;21.27;65.32
3206;BME280;1615;53.602;11.418;2023-08-07T11:51:00;99966.56;;;21.21;63.61
3206;BME280;1615;53.602;11.418;2023-08-07T11:53:29;99948.13;;;21.10;63.76
3206;BME280;1615;53.602;11.418;2023-08-07T11:55:56;99937.56;;;21.33;64.34
3206;BME280;1615;53.602;11.418;2023-08-07T11:58:22;99952.91;;;21.53;63.78
3206;BME280;1615;53.602;11.418;2023-08-07T12:00:49;99978.09;;;21.60;62.83
3206;BME280;1615;53.602;11.418;2023-08-07T12:03:38;99924.78;;;20.88;64.09
3206;BME280;1615;53.602;11.418;2023-08-07T12:06:07;100005.97;;;20.87;62.93
3206;BME280;1615;53.602;11.418;2023-08-07T12:08:34;99959.84;;;20.27;64.93
3206;BME280;1615;53.602;11.418;2023-08-07T12:11:10;100020.09;;;19.90;67.88
3206;BME280;1615;53.602;11.418;2023-08-07T12:13:43;99991.50;;;19.93;68.06
3206;BME280;1615;53.602;11.418;2023-08-07T12:16:10;99932.47;;;19.54;68.63
3206;BME280;1615;53.602;11.418;2023-08-07T12:18:46;99969.03;;;20.31;67.88
3206;BME280;1615;53.602;11.418;2023-08-07T12:21:17;99903.09;;;19.79;65.22
3206;BME280;1615;53.602;11.418;2023-08-07T12:23:48;99966.13;;;20.20;65.71
3206;BME280;1615;53.602;11.418;2023-08-07T12:26:14;99961.41;;;20.24;63.73
3206;BME280;1615;53.602;11.418;2023-08-07T12:28:39;99934.47;;;20.32;64.69
3206;BME280;1615;53.602;11.418;2023-08-07T12:31:04;99963.25;;;20.43;64.12
3206;BME280;1615;53.602;11.418;2023-08-07T12:33:30;99991.72;;;20.29;62.24
3206;BME280;1615;53.602;11.418;2023-08-07T12:35:56;99979.88;;;20.39;62.76
3206;BME280;1615;53.602;11.418;2023-08-07T12:38:21;99928.47;;;20.04;61.90
3206;BME280;1615;53.602;11.418;2023-08-07T12:40:47;99860.78;;;19.67;62.27
3206;BME280;1615;53.602;11.418;2023-08-07T12:43:12;99977.25;;;20.83;63.66
3206;BME280;1615;53.602;11.418;2023-08-07T12:45:37;99953.53;;;20.63;61.72
3206;BME280;1615;53.602;11.418;2023-08-07T12:48:03;99997.44;;;21.06;61.04
3206;BME280;1615;53.602;11.418;2023-08-07T12:50:29;99989.66;;;21.22;62.52
3206;BME280;1615;53.602;11.418;2023-08-07T12:52:54;99960.44;;;21.49;63.25
3206;BME280;1615;53.602;11.418;2023-08-07T12:55:20;99957.50;;;21.75;60.41
3206;BME280;1615;53.602;11.418;2023-08-07T12:57:45;99909.72;;;20.93;57.53
3206;BME280;1615;53.602;11.418;2023-08-07T13:00:12;99989.94;;;21.50;57.61
3206;BME280;1615;53.602;11.418;2023-08-07T13:02:44;99991.66;;;21.65;57.33